Terminal Aerodrome Forecast
Issued by NWS Detroit/Pontiac, MI

Home | Current Version | Previous Version | Text Only | Print | Product List | Glossary On
Versions: 1 2 3 4 5 6 7 8 9 10 11 12 13 14 15 16 17 18 19 20 21 22 23 24 25 26 27 28
000
FTUS43 KDTX 251427 AAA
TAFDTW
TAF AMD
KDTW 251427Z 2514/2618 02010G20KT P6SM OVC035
     FM251700 04014KT P6SM SCT025 OVC050
     FM260000 03008KT P6SM BKN100=

USA.gov is the U.S. government's official web portal to all federal, state and local government web resources and services.